Terminal Aerodrome Forecast
Issued by NWS

Home | Current Version | Previous Version | Text Only | Print | Product List | Glossary On
Versions: 1 2 3 4 5 6 7 8 9 10 11 12 13
000
FTUS42 KMLB 131100
TAFTIX
TAF
KTIX 131128Z 1312/1412 19004KT P6SM SCT030 BKN250
     FM131600 09008KT P6SM VCTS SCT035CB SCT060
     FM132000 11008KT P6SM SCT025 BKN080
     FM140200 18003KT P6SM SCT040 BKN120=

USA.gov is the U.S. government's official web portal to all federal, state and local government web resources and services.